sensor_id;sensor_type;location;lat;lon;timestamp;temperature;humidity
80176;DHT22;69501;42.124;24.722;2023-05-16T00:00:23;17.50;69.20
80176;DHT22;69501;42.124;24.722;2023-05-16T00:02:50;17.50;69.10
80176;DHT22;69501;42.124;24.722;2023-05-16T00:05:16;17.50;69.10
80176;DHT22;69501;42.124;24.722;2023-05-16T00:07:43;17.50;69.10
80176;DHT22;69501;42.124;24.722;2023-05-16T00:10:10;17.50;70.30
80176;DHT22;69501;42.124;24.722;2023-05-16T00:12:36;17.50;69.10
80176;DHT22;69501;42.124;24.722;2023-05-16T00:15:05;17.50;69.10
80176;DHT22;69501;42.124;24.722;2023-05-16T00:17:34;17.50;69.10
80176;DHT22;69501;42.124;24.722;2023-05-16T00:20:04;17.50;69.10
80176;DHT22;69501;42.124;24.722;2023-05-16T00:22:32;17.50;69.20
80176;DHT22;69501;42.124;24.722;2023-05-16T00:24:57;17.50;69.10
80176;DHT22;69501;42.124;24.722;2023-05-16T00:27:23;17.50;69.10
80176;DHT22;69501;42.124;24.722;2023-05-16T00:29:49;17.50;69.10
80176;DHT22;69501;42.124;24.722;2023-05-16T00:32:14;17.50;69.10
80176;DHT22;69501;42.124;24.722;2023-05-16T00:34:41;17.40;69.10
80176;DHT22;69501;42.124;24.722;2023-05-16T00:37:06;17.40;69.10
80176;DHT22;69501;42.124;24.722;2023-05-16T00:39:32;17.40;69.10
80176;DHT22;69501;42.124;24.722;2023-05-16T00:41:58;17.40;69.10
80176;DHT22;69501;42.124;24.722;2023-05-16T00:44:23;17.40;69.10
80176;DHT22;69501;42.124;24.722;2023-05-16T00:46:49;17.40;69.10
80176;DHT22;69501;42.124;24.722;2023-05-16T00:49:15;17.40;69.20
80176;DHT22;69501;42.124;24.722;2023-05-16T00:51:41;17.40;69.10
80176;DHT22;69501;42.124;24.722;2023-05-16T00:54:07;17.40;69.10
80176;DHT22;69501;42.124;24.722;2023-05-16T00:56:33;17.40;69.20
80176;DHT22;69501;42.124;24.722;2023-05-16T00:59:00;17.40;69.10
80176;DHT22;69501;42.124;24.722;2023-05-16T01:01:26;17.40;69.20
80176;DHT22;69501;42.124;24.722;2023-05-16T01:03:52;17.40;69.20
80176;DHT22;69501;42.124;24.722;2023-05-16T01:06:19;17.40;69.10
80176;DHT22;69501;42.124;24.722;2023-05-16T01:08:44;17.40;70.30
80176;DHT22;69501;42.124;24.722;2023-05-16T01:13:59;17.40;69.10
80176;DHT22;69501;42.124;24.722;2023-05-16T01:16:50;17.40;69.10
80176;DHT22;69501;42.124;24.722;2023-05-16T01:27:56;17.50;69.10
80176;DHT22;69501;42.124;24.722;2023-05-16T01:30:23;17.40;69.20
80176;DHT22;69501;42.124;24.722;2023-05-16T01:32:49;17.40;69.20
80176;DHT22;69501;42.124;24.722;2023-05-16T01:35:16;17.40;69.10
80176;DHT22;69501;42.124;24.722;2023-05-16T01:37:55;17.40;69.10
80176;DHT22;69501;42.124;24.722;2023-05-16T01:40:37;17.40;69.40
80176;DHT22;69501;42.124;24.722;2023-05-16T01:43:11;17.40;69.50
80176;DHT22;69501;42.124;24.722;2023-05-16T01:45:42;17.40;69.50
80176;DHT22;69501;42.124;24.722;2023-05-16T01:48:12;17.40;69.40
80176;DHT22;69501;42.124;24.722;2023-05-16T01:50:43;17.30;69.30
80176;DHT22;69501;42.124;24.722;2023-05-16T01:53:15;17.30;69.40
80176;DHT22;69501;42.124;24.722;2023-05-16T01:55:48;17.30;69.60
80176;DHT22;69501;42.124;24.722;2023-05-16T01:58:18;17.30;69.50
80176;DHT22;69501;42.124;24.722;2023-05-16T02:00:44;17.30;69.60
80176;DHT22;69501;42.124;24.722;2023-05-16T02:03:10;17.30;69.60
80176;DHT22;69501;42.124;24.722;2023-05-16T02:05:36;17.30;69.70
80176;DHT22;69501;42.124;24.722;2023-05-16T02:08:02;17.30;69.60
80176;DHT22;69501;42.124;24.722;2023-05-16T02:10:28;17.30;69.60
80176;DHT22;69501;42.124;24.722;2023-05-16T02:12:53;17.30;69.60
80176;DHT22;69501;42.124;24.722;2023-05-16T02:15:19;17.30;69.50
80176;DHT22;69501;42.124;24.722;2023-05-16T02:17:46;17.30;69.70
80176;DHT22;69501;42.124;24.722;2023-05-16T02:20:11;17.30;69.60
80176;DHT22;69501;42.124;24.722;2023-05-16T02:22:38;17.30;69.60
80176;DHT22;69501;42.124;24.722;2023-05-16T02:25:05;17.30;69.60
80176;DHT22;69501;42.124;24.722;2023-05-16T02:27:31;17.30;69.70
80176;DHT22;69501;42.124;24.722;2023-05-16T02:29:57;17.30;69.60
80176;DHT22;69501;42.124;24.722;2023-05-16T02:32:23;17.20;69.60
80176;DHT22;69501;42.124;24.722;2023-05-16T02:34:48;17.30;69.70
80176;DHT22;69501;42.124;24.722;2023-05-16T02:37:14;17.20;69.50
80176;DHT22;69501;42.124;24.722;2023-05-16T02:39:40;17.20;69.70
80176;DHT22;69501;42.124;24.722;2023-05-16T02:42:06;17.20;69.70
80176;DHT22;69501;42.124;24.722;2023-05-16T02:44:32;17.20;69.70
80176;DHT22;69501;42.124;24.722;2023-05-16T02:46:58;17.20;69.70
80176;DHT22;69501;42.124;24.722;2023-05-16T02:49:24;17.20;69.60
80176;DHT22;69501;42.124;24.722;2023-05-16T02:51:50;17.20;69.50
80176;DHT22;69501;42.124;24.722;2023-05-16T02:54:16;17.20;69.40
80176;DHT22;69501;42.124;24.722;2023-05-16T02:56:41;17.20;69.60
80176;DHT22;69501;42.124;24.722;2023-05-16T02:59:07;17.20;69.50
80176;DHT22;69501;42.124;24.722;2023-05-16T03:01:33;17.20;69.40
80176;DHT22;69501;42.124;24.722;2023-05-16T03:03:59;17.20;69.40
80176;DHT22;69501;42.124;24.722;2023-05-16T03:06:25;17.20;69.40
80176;DHT22;69501;42.124;24.722;2023-05-16T03:08:50;17.30;69.50
80176;DHT22;69501;42.124;24.722;2023-05-16T03:11:17;17.30;69.40
80176;DHT22;69501;42.124;24.722;2023-05-16T03:13:46;17.20;69.30
80176;DHT22;69501;42.124;24.722;2023-05-16T03:16:12;17.30;69.30
80176;DHT22;69501;42.124;24.722;2023-05-16T03:18:38;17.30;69.40
80176;DHT22;69501;42.124;24.722;2023-05-16T03:21:04;17.30;69.20
80176;DHT22;69501;42.124;24.722;2023-05-16T03:23:29;17.30;69.20
80176;DHT22;69501;42.124;24.722;2023-05-16T03:25:55;17.30;69.10
80176;DHT22;69501;42.124;24.722;2023-05-16T03:28:21;17.30;69.00
80176;DHT22;69501;42.124;24.722;2023-05-16T03:30:46;17.20;69.00
80176;DHT22;69501;42.124;24.722;2023-05-16T03:33:12;17.20;69.40
80176;DHT22;69501;42.124;24.722;2023-05-16T03:36:03;17.20;69.60
80176;DHT22;69501;42.124;24.722;2023-05-16T03:38:29;17.30;69.60
80176;DHT22;69501;42.124;24.722;2023-05-16T03:40:55;17.20;69.40
80176;DHT22;69501;42.124;24.722;2023-05-16T03:43:21;17.20;69.30
80176;DHT22;69501;42.124;24.722;2023-05-16T03:45:46;17.30;69.50
80176;DHT22;69501;42.124;24.722;2023-05-16T03:48:12;17.30;69.40
80176;DHT22;69501;42.124;24.722;2023-05-16T03:50:38;17.30;69.50
80176;DHT22;69501;42.124;24.722;2023-05-16T03:53:04;17.30;69.50
80176;DHT22;69501;42.124;24.722;2023-05-16T03:55:29;17.30;69.20
80176;DHT22;69501;42.124;24.722;2023-05-16T03:57:55;17.30;69.40
80176;DHT22;69501;42.124;24.722;2023-05-16T04:00:21;17.40;69.30
80176;DHT22;69501;42.124;24.722;2023-05-16T04:02:47;17.40;69.10
80176;DHT22;69501;42.124;24.722;2023-05-16T04:05:13;17.30;69.20
80176;DHT22;69501;42.124;24.722;2023-05-16T04:07:39;17.30;69.30
80176;DHT22;69501;42.124;24.722;2023-05-16T04:10:05;17.40;69.40
80176;DHT22;69501;42.124;24.722;2023-05-16T04:12:35;17.40;69.40
80176;DHT22;69501;42.124;24.722;2023-05-16T04:15:02;17.50;69.10
80176;DHT22;69501;42.124;24.722;2023-05-16T04:17:28;17.50;69.10
80176;DHT22;69501;42.124;24.722;2023-05-16T04:19:53;17.50;69.10
80176;DHT22;69501;42.124;24.722;2023-05-16T04:22:20;17.50;69.10
80176;DHT22;69501;42.124;24.722;2023-05-16T04:24:47;17.60;69.20
80176;DHT22;69501;42.124;24.722;2023-05-16T04:27:13;17.70;69.00
80176;DHT22;69501;42.124;24.722;2023-05-16T04:29:39;17.70;69.00
80176;DHT22;69501;42.124;24.722;2023-05-16T04:32:05;17.70;68.70
80176;DHT22;69501;42.124;24.722;2023-05-16T04:34:32;17.80;68.90
80176;DHT22;69501;42.124;24.722;2023-05-16T04:36:58;17.80;68.70
80176;DHT22;69501;42.124;24.722;2023-05-16T04:39:24;17.90;68.70
80176;DHT22;69501;42.124;24.722;2023-05-16T04:41:50;17.80;68.50
80176;DHT22;69501;42.124;24.722;2023-05-16T04:44:16;17.90;68.50
80176;DHT22;69501;42.124;24.722;2023-05-16T04:46:42;18.20;81.30
80176;DHT22;69501;42.124;24.722;2023-05-16T04:49:07;18.90;78.20
80176;DHT22;69501;42.124;24.722;2023-05-16T04:51:35;19.40;73.70
80176;DHT22;69501;42.124;24.722;2023-05-16T04:54:01;19.80;70.40
80176;DHT22;69501;42.124;24.722;2023-05-16T04:56:26;20.10;68.10
80176;DHT22;69501;42.124;24.722;2023-05-16T04:58:52;20.30;66.00
80176;DHT22;69501;42.124;24.722;2023-05-16T05:01:19;20.60;64.40
80176;DHT22;69501;42.124;24.722;2023-05-16T05:03:44;20.80;62.90
80176;DHT22;69501;42.124;24.722;2023-05-16T05:06:10;20.90;61.80
80176;DHT22;69501;42.124;24.722;2023-05-16T05:08:36;21.00;61.00
80176;DHT22;69501;42.124;24.722;2023-05-16T05:11:02;21.10;60.20
80176;DHT22;69501;42.124;24.722;2023-05-16T05:13:27;21.20;59.50
80176;DHT22;69501;42.124;24.722;2023-05-16T05:15:53;21.30;59.10
80176;DHT22;69501;42.124;24.722;2023-05-16T05:18:19;21.30;58.60
80176;DHT22;69501;42.124;24.722;2023-05-16T05:20:44;21.30;58.30
80176;DHT22;69501;42.124;24.722;2023-05-16T05:23:10;21.30;58.10
80176;DHT22;69501;42.124;24.722;2023-05-16T05:25:37;21.30;58.20
80176;DHT22;69501;42.124;24.722;2023-05-16T05:28:03;21.20;57.80
80176;DHT22;69501;42.124;24.722;2023-05-16T05:30:28;21.30;57.40
80176;DHT22;69501;42.124;24.722;2023-05-16T05:32:54;21.30;56.40
80176;DHT22;69501;42.124;24.722;2023-05-16T05:35:20;21.00;55.70
80176;DHT22;69501;42.124;24.722;2023-05-16T05:37:46;20.50;57.50
80176;DHT22;69501;42.124;24.722;2023-05-16T05:40:11;20.30;58.10
80176;DHT22;69501;42.124;24.722;2023-05-16T05:42:37;20.10;59.30
80176;DHT22;69501;42.124;24.722;2023-05-16T05:45:03;19.90;59.20
80176;DHT22;69501;42.124;24.722;2023-05-16T05:47:29;19.90;59.50
80176;DHT22;69501;42.124;24.722;2023-05-16T05:49:55;19.80;59.70
80176;DHT22;69501;42.124;24.722;2023-05-16T05:52:21;19.80;60.00
80176;DHT22;69501;42.124;24.722;2023-05-16T05:54:47;19.80;60.10
80176;DHT22;69501;42.124;24.722;2023-05-16T05:57:13;19.70;60.10
80176;DHT22;69501;42.124;24.722;2023-05-16T05:59:38;19.60;59.90
80176;DHT22;69501;42.124;24.722;2023-05-16T06:02:04;19.60;60.40
80176;DHT22;69501;42.124;24.722;2023-05-16T06:04:30;19.50;60.60
80176;DHT22;69501;42.124;24.722;2023-05-16T06:06:56;19.60;60.70
80176;DHT22;69501;42.124;24.722;2023-05-16T06:09:21;19.60;60.70
80176;DHT22;69501;42.124;24.722;2023-05-16T06:11:48;19.60;60.50
80176;DHT22;69501;42.124;24.722;2023-05-16T06:14:14;19.60;60.60
80176;DHT22;69501;42.124;24.722;2023-05-16T06:16:40;19.60;60.40
80176;DHT22;69501;42.124;24.722;2023-05-16T06:19:06;19.50;60.50
80176;DHT22;69501;42.124;24.722;2023-05-16T06:21:32;19.60;60.70
80176;DHT22;69501;42.124;24.722;2023-05-16T06:23:58;19.60;60.80
80176;DHT22;69501;42.124;24.722;2023-05-16T06:26:23;19.50;60.70
80176;DHT22;69501;42.124;24.722;2023-05-16T06:28:49;19.50;60.90
80176;DHT22;69501;42.124;24.722;2023-05-16T06:31:15;19.50;61.00
80176;DHT22;69501;42.124;24.722;2023-05-16T06:33:40;19.60;61.10
80176;DHT22;69501;42.124;24.722;2023-05-16T06:36:06;19.60;61.00
80176;DHT22;69501;42.124;24.722;2023-05-16T06:38:32;19.70;61.00
80176;DHT22;69501;42.124;24.722;2023-05-16T06:40:58;19.70;60.20
80176;DHT22;69501;42.124;24.722;2023-05-16T06:43:23;19.70;59.40
80176;DHT22;69501;42.124;24.722;2023-05-16T06:45:49;19.70;59.60
80176;DHT22;69501;42.124;24.722;2023-05-16T06:48:17;19.70;59.50
80176;DHT22;69501;42.124;24.722;2023-05-16T06:50:47;19.80;59.30
80176;DHT22;69501;42.124;24.722;2023-05-16T06:53:12;19.80;59.30
80176;DHT22;69501;42.124;24.722;2023-05-16T06:55:38;19.80;59.10
80176;DHT22;69501;42.124;24.722;2023-05-16T06:58:03;19.80;59.00
80176;DHT22;69501;42.124;24.722;2023-05-16T07:00:29;19.80;59.20
80176;DHT22;69501;42.124;24.722;2023-05-16T07:02:55;19.90;59.10
80176;DHT22;69501;42.124;24.722;2023-05-16T07:05:20;20.00;59.10
80176;DHT22;69501;42.124;24.722;2023-05-16T07:07:46;20.00;58.80
80176;DHT22;69501;42.124;24.722;2023-05-16T07:10:13;20.00;58.80
80176;DHT22;69501;42.124;24.722;2023-05-16T07:12:41;20.10;58.60
80176;DHT22;69501;42.124;24.722;2023-05-16T07:15:07;20.10;58.20
80176;DHT22;69501;42.124;24.722;2023-05-16T07:17:33;20.10;58.40
80176;DHT22;69501;42.124;24.722;2023-05-16T07:19:59;20.20;58.30
80176;DHT22;69501;42.124;24.722;2023-05-16T07:22:24;20.20;58.00
80176;DHT22;69501;42.124;24.722;2023-05-16T07:24:50;20.20;57.80
80176;DHT22;69501;42.124;24.722;2023-05-16T07:27:18;20.30;58.10
80176;DHT22;69501;42.124;24.722;2023-05-16T07:29:44;20.30;57.70
80176;DHT22;69501;42.124;24.722;2023-05-16T07:32:10;20.30;57.50
80176;DHT22;69501;42.124;24.722;2023-05-16T07:34:35;20.40;57.10
80176;DHT22;69501;42.124;24.722;2023-05-16T07:37:01;20.40;57.00
80176;DHT22;69501;42.124;24.722;2023-05-16T07:39:27;20.40;56.80
80176;DHT22;69501;42.124;24.722;2023-05-16T07:41:53;20.40;57.10
80176;DHT22;69501;42.124;24.722;2023-05-16T07:44:18;20.40;57.10
80176;DHT22;69501;42.124;24.722;2023-05-16T07:46:44;20.40;57.10
80176;DHT22;69501;42.124;24.722;2023-05-16T07:49:10;20.40;57.00
80176;DHT22;69501;42.124;24.722;2023-05-16T07:51:36;20.40;56.90
80176;DHT22;69501;42.124;24.722;2023-05-16T07:54:01;20.40;56.70
80176;DHT22;69501;42.124;24.722;2023-05-16T07:56:27;20.40;56.90
80176;DHT22;69501;42.124;24.722;2023-05-16T07:58:53;20.40;57.20
80176;DHT22;69501;42.124;24.722;2023-05-16T08:01:19;20.40;57.10
80176;DHT22;69501;42.124;24.722;2023-05-16T08:03:45;20.40;57.20
80176;DHT22;69501;42.124;24.722;2023-05-16T08:06:10;20.50;57.50
80176;DHT22;69501;42.124;24.722;2023-05-16T08:08:36;20.60;57.50
80176;DHT22;69501;42.124;24.722;2023-05-16T08:11:02;20.60;57.30
80176;DHT22;69501;42.124;24.722;2023-05-16T08:13:30;20.70;57.10
80176;DHT22;69501;42.124;24.722;2023-05-16T08:15:56;20.80;57.10
80176;DHT22;69501;42.124;24.722;2023-05-16T08:18:21;20.80;56.70
80176;DHT22;69501;42.124;24.722;2023-05-16T08:20:47;20.90;56.40
80176;DHT22;69501;42.124;24.722;2023-05-16T08:23:13;20.90;56.20
80176;DHT22;69501;42.124;24.722;2023-05-16T08:25:39;21.00;56.30
80176;DHT22;69501;42.124;24.722;2023-05-16T08:28:04;21.00;57.50
80176;DHT22;69501;42.124;24.722;2023-05-16T08:30:30;21.10;56.50
80176;DHT22;69501;42.124;24.722;2023-05-16T08:32:56;21.10;56.20
80176;DHT22;69501;42.124;24.722;2023-05-16T08:35:22;21.20;56.00
80176;DHT22;69501;42.124;24.722;2023-05-16T08:37:47;21.20;56.00
80176;DHT22;69501;42.124;24.722;2023-05-16T08:40:13;21.30;56.00
80176;DHT22;69501;42.124;24.722;2023-05-16T08:42:40;21.30;55.80
80176;DHT22;69501;42.124;24.722;2023-05-16T08:45:06;21.40;55.70
80176;DHT22;69501;42.124;24.722;2023-05-16T08:47:32;21.40;55.60
80176;DHT22;69501;42.124;24.722;2023-05-16T08:49:59;21.40;55.50
80176;DHT22;69501;42.124;24.722;2023-05-16T08:52:27;21.50;55.30
80176;DHT22;69501;42.124;24.722;2023-05-16T08:55:02;21.50;55.10
80176;DHT22;69501;42.124;24.722;2023-05-16T08:57:32;21.60;55.10
80176;DHT22;69501;42.124;24.722;2023-05-16T08:59:59;21.60;54.80
80176;DHT22;69501;42.124;24.722;2023-05-16T09:02:26;21.60;55.10
80176;DHT22;69501;42.124;24.722;2023-05-16T09:04:53;21.60;55.00
80176;DHT22;69501;42.124;24.722;2023-05-16T09:07:18;21.60;55.00
80176;DHT22;69501;42.124;24.722;2023-05-16T09:09:44;21.60;55.10
80176;DHT22;69501;42.124;24.722;2023-05-16T09:12:10;21.60;55.10
80176;DHT22;69501;42.124;24.722;2023-05-16T09:14:36;21.60;55.10
80176;DHT22;69501;42.124;24.722;2023-05-16T09:17:07;21.60;56.40
80176;DHT22;69501;42.124;24.722;2023-05-16T09:19:40;21.60;55.30
80176;DHT22;69501;42.124;24.722;2023-05-16T09:22:11;21.70;55.10
80176;DHT22;69501;42.124;24.722;2023-05-16T09:24:39;21.70;55.10
80176;DHT22;69501;42.124;24.722;2023-05-16T09:27:09;21.70;55.10
80176;DHT22;69501;42.124;24.722;2023-05-16T09:29:36;21.70;55.00
80176;DHT22;69501;42.124;24.722;2023-05-16T09:32:15;21.60;55.30
80176;DHT22;69501;42.124;24.722;2023-05-16T09:34:45;21.60;55.80
80176;DHT22;69501;42.124;24.722;2023-05-16T09:37:16;21.60;55.60
80176;DHT22;69501;42.124;24.722;2023-05-16T09:39:49;21.60;55.80
80176;DHT22;69501;42.124;24.722;2023-05-16T09:42:17;21.60;55.80
80176;DHT22;69501;42.124;24.722;2023-05-16T09:44:51;21.70;55.40
80176;DHT22;69501;42.124;24.722;2023-05-16T09:47:18;21.70;55.40
80176;DHT22;69501;42.124;24.722;2023-05-16T09:49:45;21.70;55.20
80176;DHT22;69501;42.124;24.722;2023-05-16T09:52:14;21.70;55.00
80176;DHT22;69501;42.124;24.722;2023-05-16T09:54:40;21.80;55.10
80176;DHT22;69501;42.124;24.722;2023-05-16T09:57:06;21.80;55.00
80176;DHT22;69501;42.124;24.722;2023-05-16T09:59:38;21.90;54.80
80176;DHT22;69501;42.124;24.722;2023-05-16T10:02:06;22.00;54.50
80176;DHT22;69501;42.124;24.722;2023-05-16T10:04:34;22.00;54.20
80176;DHT22;69501;42.124;24.722;2023-05-16T10:07:04;22.00;54.00
80176;DHT22;69501;42.124;24.722;2023-05-16T10:09:31;22.10;53.80
80176;DHT22;69501;42.124;24.722;2023-05-16T10:12:00;22.10;53.70
80176;DHT22;69501;42.124;24.722;2023-05-16T10:14:35;22.20;53.40
80176;DHT22;69501;42.124;24.722;2023-05-16T10:17:06;22.20;53.10
80176;DHT22;69501;42.124;24.722;2023-05-16T10:19:35;22.10;53.10
80176;DHT22;69501;42.124;24.722;2023-05-16T10:22:05;22.10;53.60
80176;DHT22;69501;42.124;24.722;2023-05-16T10:24:47;22.10;53.60
80176;DHT22;69501;42.124;24.722;2023-05-16T10:27:16;22.10;53.50
80176;DHT22;69501;42.124;24.722;2023-05-16T10:29:43;22.10;54.90
80176;DHT22;69501;42.124;24.722;2023-05-16T10:32:09;22.10;54.00
80176;DHT22;69501;42.124;24.722;2023-05-16T10:34:37;22.10;53.80
80176;DHT22;69501;42.124;24.722;2023-05-16T10:37:04;22.20;54.00
80176;DHT22;69501;42.124;24.722;2023-05-16T10:39:31;22.30;53.90
80176;DHT22;69501;42.124;24.722;2023-05-16T10:41:57;22.30;53.70
80176;DHT22;69501;42.124;24.722;2023-05-16T10:44:24;22.40;53.50
80176;DHT22;69501;42.124;24.722;2023-05-16T10:46:50;22.50;54.70
80176;DHT22;69501;42.124;24.722;2023-05-16T10:49:23;22.60;52.90
80176;DHT22;69501;42.124;24.722;2023-05-16T10:54:39;22.70;52.30
80176;DHT22;69501;42.124;24.722;2023-05-16T10:57:15;22.70;52.50
80176;DHT22;69501;42.124;24.722;2023-05-16T10:59:46;22.80;52.50
80176;DHT22;69501;42.124;24.722;2023-05-16T11:04:55;22.90;51.90
80176;DHT22;69501;42.124;24.722;2023-05-16T11:07:23;22.80;51.70
80176;DHT22;69501;42.124;24.722;2023-05-16T11:10:21;22.80;52.10
80176;DHT22;69501;42.124;24.722;2023-05-16T11:12:50;22.90;52.40
80176;DHT22;69501;42.124;24.722;2023-05-16T11:17:46;22.80;52.20
80176;DHT22;69501;42.124;24.722;2023-05-16T11:20:44;22.80;52.30
80176;DHT22;69501;42.124;24.722;2023-05-16T11:25:43;22.60;53.30
80176;DHT22;69501;42.124;24.722;2023-05-16T11:28:11;22.40;53.70
80176;DHT22;69501;42.124;24.722;2023-05-16T11:30:49;22.40;54.20
80176;DHT22;69501;42.124;24.722;2023-05-16T11:33:16;22.30;54.30
80176;DHT22;69501;42.124;24.722;2023-05-16T11:35:42;22.30;54.60
80176;DHT22;69501;42.124;24.722;2023-05-16T11:38:14;22.40;54.80
80176;DHT22;69501;42.124;24.722;2023-05-16T11:40:43;22.40;55.10
80176;DHT22;69501;42.124;24.722;2023-05-16T11:43:09;22.30;55.20
80176;DHT22;69501;42.124;24.722;2023-05-16T11:45:36;22.30;55.00
80176;DHT22;69501;42.124;24.722;2023-05-16T11:48:02;22.30;55.00
80176;DHT22;69501;42.124;24.722;2023-05-16T11:50:28;22.30;55.00
80176;DHT22;69501;42.124;24.722;2023-05-16T11:52:55;22.40;55.10
80176;DHT22;69501;42.124;24.722;2023-05-16T11:55:23;22.50;54.60
80176;DHT22;69501;42.124;24.722;2023-05-16T11:57:50;22.60;54.30
80176;DHT22;69501;42.124;24.722;2023-05-16T12:00:18;22.60;54.30
80176;DHT22;69501;42.124;24.722;2023-05-16T12:02:47;22.70;54.20
80176;DHT22;69501;42.124;24.722;2023-05-16T12:05:15;22.90;53.90
80176;DHT22;69501;42.124;24.722;2023-05-16T12:07:45;23.10;53.50
80176;DHT22;69501;42.124;24.722;2023-05-16T12:10:13;23.10;53.30
80176;DHT22;69501;42.124;24.722;2023-05-16T12:12:40;23.20;53.20
80176;DHT22;69501;42.124;24.722;2023-05-16T12:15:08;23.30;52.90
80176;DHT22;69501;42.124;24.722;2023-05-16T12:17:38;23.40;52.40
80176;DHT22;69501;42.124;24.722;2023-05-16T12:20:04;23.30;52.30
80176;DHT22;69501;42.124;24.722;2023-05-16T12:22:31;23.40;52.30
80176;DHT22;69501;42.124;24.722;2023-05-16T12:25:29;23.50;52.10
80176;DHT22;69501;42.124;24.722;2023-05-16T12:28:01;23.50;52.10
80176;DHT22;69501;42.124;24.722;2023-05-16T12:30:30;23.50;52.10
80176;DHT22;69501;42.124;24.722;2023-05-16T12:35:22;23.60;52.10
80176;DHT22;69501;42.124;24.722;2023-05-16T12:37:49;23.70;52.00
80176;DHT22;69501;42.124;24.722;2023-05-16T12:40:16;23.80;51.70
80176;DHT22;69501;42.124;24.722;2023-05-16T12:42:54;23.80;51.20
80176;DHT22;69501;42.124;24.722;2023-05-16T12:45:25;23.90;51.00
80176;DHT22;69501;42.124;24.722;2023-05-16T12:47:52;24.00;50.60
80176;DHT22;69501;42.124;24.722;2023-05-16T12:50:18;24.10;50.60
80176;DHT22;69501;42.124;24.722;2023-05-16T12:52:52;24.20;49.80
80176;DHT22;69501;42.124;24.722;2023-05-16T12:55:20;24.20;49.10
80176;DHT22;69501;42.124;24.722;2023-05-16T12:57:47;24.20;49.50
80176;DHT22;69501;42.124;24.722;2023-05-16T13:00:15;24.20;49.40
80176;DHT22;69501;42.124;24.722;2023-05-16T13:02:43;24.20;49.50
80176;DHT22;69501;42.124;24.722;2023-05-16T13:05:09;24.20;49.50
80176;DHT22;69501;42.124;24.722;2023-05-16T13:07:35;24.20;49.50
80176;DHT22;69501;42.124;24.722;2023-05-16T13:10:02;24.20;49.60
80176;DHT22;69501;42.124;24.722;2023-05-16T13:12:28;24.20;49.30
80176;DHT22;69501;42.124;24.722;2023-05-16T13:14:55;24.30;49.30
80176;DHT22;69501;42.124;24.722;2023-05-16T13:17:20;24.40;49.60
80176;DHT22;69501;42.124;24.722;2023-05-16T13:19:48;24.50;49.30
80176;DHT22;69501;42.124;24.722;2023-05-16T13:22:14;24.70;48.60
80176;DHT22;69501;42.124;24.722;2023-05-16T13:24:39;24.90;48.40
80176;DHT22;69501;42.124;24.722;2023-05-16T13:27:05;25.10;47.90
80176;DHT22;69501;42.124;24.722;2023-05-16T13:29:31;25.20;47.50
80176;DHT22;69501;42.124;24.722;2023-05-16T13:31:57;25.30;47.30
80176;DHT22;69501;42.124;24.722;2023-05-16T13:34:22;25.50;48.30
80176;DHT22;69501;42.124;24.722;2023-05-16T13:36:48;25.60;46.80
80176;DHT22;69501;42.124;24.722;2023-05-16T13:39:14;25.80;46.40
80176;DHT22;69501;42.124;24.722;2023-05-16T13:41:40;25.90;45.60
80176;DHT22;69501;42.124;24.722;2023-05-16T13:44:06;26.10;45.60
80176;DHT22;69501;42.124;24.722;2023-05-16T13:46:32;26.10;45.40
80176;DHT22;69501;42.124;24.722;2023-05-16T13:48:58;26.20;45.00
80176;DHT22;69501;42.124;24.722;2023-05-16T13:51:24;26.10;45.00
80176;DHT22;69501;42.124;24.722;2023-05-16T13:53:50;26.10;45.00
80176;DHT22;69501;42.124;24.722;2023-05-16T13:56:16;26.00;45.00
80176;DHT22;69501;42.124;24.722;2023-05-16T13:58:42;25.90;45.10
80176;DHT22;69501;42.124;24.722;2023-05-16T14:01:08;25.90;45.60
80176;DHT22;69501;42.124;24.722;2023-05-16T14:03:33;25.90;45.90
80176;DHT22;69501;42.124;24.722;2023-05-16T14:06:01;25.90;46.10
80176;DHT22;69501;42.124;24.722;2023-05-16T14:08:27;25.90;46.00
80176;DHT22;69501;42.124;24.722;2023-05-16T14:10:53;25.80;46.00
80176;DHT22;69501;42.124;24.722;2023-05-16T14:13:19;25.60;46.40
80176;DHT22;69501;42.124;24.722;2023-05-16T14:15:45;25.40;46.90
80176;DHT22;69501;42.124;24.722;2023-05-16T14:18:11;25.30;47.30
80176;DHT22;69501;42.124;24.722;2023-05-16T14:20:37;25.30;47.80
80176;DHT22;69501;42.124;24.722;2023-05-16T14:23:03;25.20;48.20
80176;DHT22;69501;42.124;24.722;2023-05-16T14:25:29;25.10;48.30
80176;DHT22;69501;42.124;24.722;2023-05-16T14:27:54;24.90;48.60
80176;DHT22;69501;42.124;24.722;2023-05-16T14:30:20;24.80;49.30
80176;DHT22;69501;42.124;24.722;2023-05-16T14:32:46;24.70;49.50
80176;DHT22;69501;42.124;24.722;2023-05-16T14:35:11;24.50;49.70
80176;DHT22;69501;42.124;24.722;2023-05-16T14:37:37;24.50;50.00
80176;DHT22;69501;42.124;24.722;2023-05-16T14:40:03;24.30;50.90
80176;DHT22;69501;42.124;24.722;2023-05-16T14:42:30;24.20;51.40
80176;DHT22;69501;42.124;24.722;2023-05-16T14:44:56;24.00;51.60
80176;DHT22;69501;42.124;24.722;2023-05-16T14:47:22;23.80;51.80
80176;DHT22;69501;42.124;24.722;2023-05-16T14:49:48;23.60;52.10
80176;DHT22;69501;42.124;24.722;2023-05-16T14:52:14;23.40;53.10
80176;DHT22;69501;42.124;24.722;2023-05-16T14:54:39;23.20;53.60
80176;DHT22;69501;42.124;24.722;2023-05-16T14:57:05;22.90;53.90
80176;DHT22;69501;42.124;24.722;2023-05-16T14:59:31;22.60;55.00
80176;DHT22;69501;42.124;24.722;2023-05-16T15:01:57;22.40;56.00
80176;DHT22;69501;42.124;24.722;2023-05-16T15:04:23;22.20;56.10
80176;DHT22;69501;42.124;24.722;2023-05-16T15:06:49;21.90;57.90
80176;DHT22;69501;42.124;24.722;2023-05-16T15:09:14;21.70;57.40
80176;DHT22;69501;42.124;24.722;2023-05-16T15:11:41;21.60;58.00
80176;DHT22;69501;42.124;24.722;2023-05-16T15:14:07;21.50;58.30
80176;DHT22;69501;42.124;24.722;2023-05-16T15:16:33;21.40;58.90
80176;DHT22;69501;42.124;24.722;2023-05-16T15:18:58;21.30;59.10
80176;DHT22;69501;42.124;24.722;2023-05-16T15:21:24;21.30;59.10
80176;DHT22;69501;42.124;24.722;2023-05-16T15:23:49;21.30;59.20
80176;DHT22;69501;42.124;24.722;2023-05-16T15:26:18;21.40;59.40
80176;DHT22;69501;42.124;24.722;2023-05-16T15:28:43;21.30;59.60
80176;DHT22;69501;42.124;24.722;2023-05-16T15:31:09;21.20;60.00
80176;DHT22;69501;42.124;24.722;2023-05-16T15:33:35;21.10;60.50
80176;DHT22;69501;42.124;24.722;2023-05-16T15:36:00;21.10;60.70
80176;DHT22;69501;42.124;24.722;2023-05-16T15:38:26;20.90;61.40